createdAt,value
2023-12-10T00:00:12.997Z,69.49
2023-12-10T00:01:13.073Z,69.49
2023-12-10T00:02:12.986Z,69.49
2023-12-10T00:03:13.026Z,69.49
2023-12-10T00:04:12.972Z,69.49
2023-12-10T00:05:12.874Z,69.49
2023-12-10T00:06:14.581Z,69.49
2023-12-10T00:07:12.861Z,69.60
2023-12-10T00:08:12.857Z,69.60
2023-12-10T00:09:12.831Z,69.60
2023-12-10T00:10:12.828Z,69.60
2023-12-10T00:11:12.840Z,69.60
2023-12-10T00:12:12.803Z,69.60
2023-12-10T00:13:12.811Z,69.60
2023-12-10T00:14:12.813Z,69.60
2023-12-10T00:15:12.828Z,69.70
2023-12-10T00:16:12.728Z,69.70
2023-12-10T00:17:12.700Z,69.60
2023-12-10T00:18:12.817Z,69.60
2023-12-10T00:19:12.849Z,69.60
2023-12-10T00:20:12.675Z,69.60
2023-12-10T00:21:12.671Z,69.60
2023-12-10T00:22:12.655Z,69.60
2023-12-10T00:23:12.636Z,69.60
2023-12-10T00:24:12.677Z,69.60
2023-12-10T00:25:12.615Z,69.60
2023-12-10T00:26:12.585Z,69.70
2023-12-10T00:27:12.694Z,69.67
2023-12-10T00:28:12.557Z,69.67
2023-12-10T00:29:12.841Z,69.56
2023-12-10T00:30:12.570Z,69.56
2023-12-10T00:31:12.538Z,69.56
2023-12-10T00:32:12.508Z,69.67
2023-12-10T00:33:12.596Z,69.56
2023-12-10T00:34:12.630Z,69.56
2023-12-10T00:35:12.481Z,69.56
2023-12-10T00:36:12.488Z,69.67
2023-12-10T00:37:12.535Z,69.70
2023-12-10T00:38:12.431Z,69.70
2023-12-10T00:39:12.450Z,69.67
2023-12-10T00:40:12.424Z,69.70
2023-12-10T00:41:12.472Z,69.70
2023-12-10T00:42:12.448Z,69.80
2023-12-10T00:43:12.372Z,69.70
2023-12-10T00:44:12.386Z,69.70
2023-12-10T00:45:12.382Z,69.70
2023-12-10T00:46:12.346Z,69.70
2023-12-10T00:47:12.322Z,69.70
2023-12-10T00:48:12.392Z,69.80
2023-12-10T00:49:12.392Z,69.80
2023-12-10T00:50:12.291Z,69.77
2023-12-10T00:51:12.321Z,69.80
2023-12-10T00:52:12.286Z,69.70
2023-12-10T00:53:12.247Z,69.67
2023-12-10T00:54:13.531Z,69.67
2023-12-10T00:55:12.219Z,69.67
2023-12-10T00:56:12.197Z,69.67
2023-12-10T00:57:12.234Z,69.67
2023-12-10T00:58:12.200Z,69.67
2023-12-10T00:59:12.171Z,69.67
2023-12-10T01:00:13.800Z,69.67
2023-12-10T01:01:12.250Z,69.67
2023-12-10T01:02:12.106Z,69.67
2023-12-10T01:03:12.234Z,69.67
2023-12-10T01:04:12.259Z,69.67
2023-12-10T01:05:12.130Z,69.67
2023-12-10T01:06:12.123Z,69.67
2023-12-10T01:07:12.073Z,69.67
2023-12-10T01:08:12.082Z,69.67
2023-12-10T01:09:12.114Z,69.67
2023-12-10T01:10:12.043Z,69.67
2023-12-10T01:11:12.029Z,69.67
2023-12-10T01:12:12.029Z,69.67
2023-12-10T01:13:12.020Z,69.67
2023-12-10T01:14:11.953Z,69.67
2023-12-10T01:15:11.990Z,69.56
2023-12-10T01:16:11.926Z,69.67
2023-12-10T01:17:11.991Z,69.70
2023-12-10T01:18:12.111Z,69.70
2023-12-10T01:19:12.027Z,69.70
2023-12-10T01:20:11.909Z,69.80
2023-12-10T01:21:11.936Z,69.80
2023-12-10T01:22:11.864Z,69.80
2023-12-10T01:23:11.919Z,69.70
2023-12-10T01:24:11.913Z,69.60
2023-12-10T01:25:11.860Z,69.70
2023-12-10T01:26:11.864Z,69.70
2023-12-10T01:27:11.948Z,69.80
2023-12-10T01:28:11.783Z,69.80
2023-12-10T01:29:11.819Z,69.70
2023-12-10T01:30:12.747Z,69.80
2023-12-10T01:31:11.768Z,69.80
2023-12-10T01:32:11.780Z,69.80
2023-12-10T01:33:12.001Z,69.80
2023-12-10T01:34:11.897Z,69.80
2023-12-10T01:35:11.847Z,69.80
2023-12-10T01:36:11.757Z,69.80
2023-12-10T01:37:11.678Z,69.70
2023-12-10T01:38:11.647Z,69.70
2023-12-10T01:39:11.718Z,69.73
2023-12-10T01:40:11.679Z,69.73
2023-12-10T01:41:13.574Z,69.73
2023-12-10T01:42:11.614Z,69.73
2023-12-10T01:43:11.619Z,69.73
2023-12-10T01:44:11.621Z,69.73
2023-12-10T01:45:11.588Z,69.73
2023-12-10T01:46:11.577Z,69.87
2023-12-10T01:47:11.613Z,69.87
2023-12-10T01:48:11.679Z,69.87
2023-12-10T01:49:11.588Z,69.94
2023-12-10T01:50:11.509Z,69.84
2023-12-10T01:51:11.533Z,69.84
2023-12-10T01:52:11.470Z,69.94
2023-12-10T01:53:11.459Z,69.84
2023-12-10T01:54:11.469Z,69.73
2023-12-10T01:55:11.452Z,69.73
2023-12-10T01:56:12.130Z,69.73
2023-12-10T01:57:11.430Z,69.73
2023-12-10T01:58:11.381Z,69.73
2023-12-10T01:59:11.382Z,69.73
2023-12-10T02:00:11.482Z,69.73
2023-12-10T02:01:11.450Z,69.84
2023-12-10T02:02:11.357Z,69.84
2023-12-10T02:03:11.351Z,69.84
2023-12-10T02:04:11.442Z,69.84
2023-12-10T02:05:11.512Z,69.84
2023-12-10T02:06:11.357Z,69.84
2023-12-10T02:07:11.285Z,69.73
2023-12-10T02:08:11.312Z,69.76
2023-12-10T02:09:11.295Z,69.73
2023-12-10T02:10:11.227Z,69.76
2023-12-10T02:11:11.235Z,69.76
2023-12-10T02:12:11.273Z,69.76
2023-12-10T02:13:11.208Z,69.87
2023-12-10T02:14:11.239Z,69.87
2023-12-10T02:15:11.186Z,69.87
2023-12-10T02:16:11.166Z,69.87
2023-12-10T02:17:11.157Z,69.87
2023-12-10T02:18:11.289Z,69.87
2023-12-10T02:19:11.216Z,69.87
2023-12-10T02:20:11.130Z,69.87
2023-12-10T02:21:11.144Z,69.87
2023-12-10T02:22:11.086Z,69.87
2023-12-10T02:23:11.088Z,69.87
2023-12-10T02:24:11.110Z,69.87
2023-12-10T02:25:11.043Z,69.87
2023-12-10T02:26:11.018Z,69.76
2023-12-10T02:27:11.092Z,69.87
2023-12-10T02:28:11.004Z,69.87
2023-12-10T02:29:11.052Z,69.76
2023-12-10T02:30:11.074Z,69.76
2023-12-10T02:31:10.979Z,69.76
2023-12-10T02:32:10.971Z,69.76
2023-12-10T02:33:11.140Z,69.76
2023-12-10T02:34:11.096Z,69.76
2023-12-10T02:35:10.921Z,69.76
2023-12-10T02:36:10.958Z,69.76
2023-12-10T02:37:10.926Z,69.76
2023-12-10T02:38:10.876Z,69.76
2023-12-10T02:39:10.983Z,69.76
2023-12-10T02:40:10.858Z,69.76
2023-12-10T02:41:10.856Z,69.76
2023-12-10T02:42:10.855Z,69.76
2023-12-10T02:43:10.842Z,69.87
2023-12-10T02:44:10.802Z,69.76
2023-12-10T02:45:10.919Z,69.76
2023-12-10T02:46:10.801Z,69.76
2023-12-10T02:47:10.828Z,69.66
2023-12-10T02:48:11.039Z,69.76
2023-12-10T02:49:10.897Z,69.66
2023-12-10T02:50:10.738Z,69.66
2023-12-10T02:51:10.773Z,69.66
2023-12-10T02:52:10.707Z,69.56
2023-12-10T02:53:10.710Z,69.56
2023-12-10T02:54:10.847Z,69.66
2023-12-10T02:55:10.951Z,69.76
2023-12-10T02:56:10.648Z,69.84
2023-12-10T02:57:10.834Z,69.84
2023-12-10T02:58:10.606Z,69.84
2023-12-10T02:59:10.643Z,69.80
2023-12-10T03:00:10.598Z,69.73
2023-12-10T03:01:10.877Z,69.60
2023-12-10T03:02:10.615Z,69.53
2023-12-10T03:03:10.627Z,69.42
2023-12-10T03:04:10.651Z,69.53
2023-12-10T03:05:10.662Z,69.63
2023-12-10T03:06:10.599Z,69.63
2023-12-10T03:07:10.628Z,69.63
2023-12-10T03:08:10.509Z,69.63
2023-12-10T03:09:10.584Z,69.63
2023-12-10T03:10:10.605Z,69.73
2023-12-10T03:11:10.562Z,69.76
2023-12-10T03:12:10.447Z,69.87
2023-12-10T03:13:10.629Z,69.87
2023-12-10T03:14:13.562Z,69.87
2023-12-10T03:15:10.408Z,69.97
2023-12-10T03:16:10.406Z,69.97
2023-12-10T03:17:10.399Z,70.00
2023-12-10T03:18:10.551Z,70.00
2023-12-10T03:19:10.586Z,70.10
2023-12-10T03:20:10.442Z,70.00
2023-12-10T03:21:10.448Z,70.10
2023-12-10T03:22:10.553Z,70.00
2023-12-10T03:23:10.511Z,70.00
2023-12-10T03:24:10.496Z,70.10
2023-12-10T03:25:10.472Z,70.10
2023-12-10T03:26:10.270Z,70.00
2023-12-10T03:27:10.259Z,70.10
2023-12-10T03:28:10.385Z,70.14
2023-12-10T03:29:10.246Z,70.14
2023-12-10T03:30:10.198Z,70.14
2023-12-10T03:31:10.225Z,70.14
2023-12-10T03:32:10.155Z,70.14
2023-12-10T03:33:10.278Z,70.14
2023-12-10T03:34:10.224Z,70.14
2023-12-10T03:35:10.133Z,70.14
2023-12-10T03:36:10.117Z,70.04
2023-12-10T03:37:10.119Z,70.14
2023-12-10T03:38:10.102Z,70.07
2023-12-10T03:39:10.096Z,70.07
2023-12-10T03:40:10.103Z,70.07
2023-12-10T03:41:10.069Z,70.07
2023-12-10T03:42:10.057Z,70.07
2023-12-10T03:43:10.078Z,70.07
2023-12-10T03:44:10.017Z,70.07
2023-12-10T03:45:10.021Z,70.07
2023-12-10T03:46:10.001Z,70.07
2023-12-10T03:47:10.114Z,70.07
2023-12-10T03:48:10.128Z,70.10
2023-12-10T03:49:10.269Z,70.10
2023-12-10T03:50:10.163Z,70.10
2023-12-10T03:51:10.328Z,70.10
2023-12-10T03:52:10.497Z,70.10
2023-12-10T03:53:10.313Z,70.10
2023-12-10T03:54:10.288Z,70.20
2023-12-10T03:55:10.122Z,70.20
2023-12-10T03:56:10.206Z,70.20
2023-12-10T03:57:09.867Z,70.20
2023-12-10T03:58:09.914Z,70.20
2023-12-10T03:59:09.860Z,70.10
2023-12-10T04:00:09.810Z,70.20
2023-12-10T04:01:09.988Z,70.28
2023-12-10T04:02:09.771Z,70.28
2023-12-10T04:03:09.858Z,70.17
2023-12-10T04:04:10.231Z,70.17
2023-12-10T04:05:09.769Z,70.07
2023-12-10T04:06:09.727Z,70.07
2023-12-10T04:07:09.725Z,70.17
2023-12-10T04:08:09.711Z,70.07
2023-12-10T04:09:09.737Z,69.96
2023-12-10T04:10:09.727Z,70.07
2023-12-10T04:11:09.738Z,69.96
2023-12-10T04:12:09.681Z,69.96
2023-12-10T04:13:09.653Z,69.96
2023-12-10T04:14:09.670Z,69.96
2023-12-10T04:15:09.657Z,69.96
2023-12-10T04:16:09.636Z,70.07
2023-12-10T04:17:09.618Z,70.07
2023-12-10T04:18:09.687Z,69.96
2023-12-10T04:19:09.794Z,69.96
2023-12-10T04:20:09.628Z,69.96
2023-12-10T04:21:09.552Z,70.07
2023-12-10T04:22:09.644Z,70.07
2023-12-10T04:23:09.596Z,70.07
2023-12-10T04:24:09.554Z,69.96
2023-12-10T04:25:09.558Z,69.96
2023-12-10T04:26:09.549Z,69.96
2023-12-10T04:27:09.526Z,69.96
2023-12-10T04:28:09.486Z,69.96
2023-12-10T04:29:09.615Z,69.96
2023-12-10T04:30:09.423Z,69.96
2023-12-10T04:31:09.491Z,69.96
2023-12-10T04:32:09.477Z,70.07
2023-12-10T04:33:09.510Z,70.07
2023-12-10T04:34:09.495Z,69.96
2023-12-10T04:35:09.444Z,69.96
2023-12-10T04:36:09.365Z,69.96
2023-12-10T04:37:09.338Z,69.96
2023-12-10T04:38:09.320Z,70.07
2023-12-10T04:39:09.340Z,70.07
2023-12-10T04:40:09.323Z,70.04
2023-12-10T04:41:09.299Z,69.93
2023-12-10T04:42:09.276Z,69.93
2023-12-10T04:43:09.256Z,69.93
2023-12-10T04:44:09.255Z,69.93
2023-12-10T04:45:09.264Z,69.93
2023-12-10T04:46:09.236Z,69.93
2023-12-10T04:47:09.189Z,69.93
2023-12-10T04:48:09.294Z,69.90
2023-12-10T04:49:09.301Z,69.79
2023-12-10T04:50:09.207Z,69.90
2023-12-10T04:51:09.178Z,69.90
2023-12-10T04:52:09.156Z,69.90
2023-12-10T04:53:09.128Z,69.87
2023-12-10T04:54:09.121Z,69.87
2023-12-10T04:55:09.118Z,69.87
2023-12-10T04:56:09.101Z,69.76
2023-12-10T04:57:09.083Z,69.87
2023-12-10T04:58:09.089Z,69.73
2023-12-10T04:59:09.041Z,69.63
2023-12-10T05:00:09.030Z,69.63
2023-12-10T05:01:09.081Z,69.66
2023-12-10T05:02:09.058Z,69.63
2023-12-10T05:03:09.070Z,69.66
2023-12-10T05:04:09.058Z,69.66
2023-12-10T05:05:08.951Z,69.66
2023-12-10T05:06:09.047Z,69.66
2023-12-10T05:07:08.938Z,69.76
2023-12-10T05:08:08.971Z,69.76
2023-12-10T05:09:09.059Z,69.90
2023-12-10T05:10:08.927Z,70.00
2023-12-10T05:11:08.899Z,70.00
2023-12-10T05:12:08.925Z,70.00
2023-12-10T05:13:08.897Z,70.00
2023-12-10T05:14:08.944Z,70.00
2023-12-10T05:15:08.844Z,70.14
2023-12-10T05:16:08.835Z,70.14
2023-12-10T05:17:08.875Z,70.14
2023-12-10T05:18:08.913Z,70.25
2023-12-10T05:19:08.945Z,70.25
2023-12-10T05:20:08.821Z,70.25
2023-12-10T05:21:08.795Z,70.25
2023-12-10T05:22:08.858Z,70.25
2023-12-10T05:23:08.746Z,70.14
2023-12-10T05:24:08.799Z,70.25
2023-12-10T05:25:08.700Z,70.25
2023-12-10T05:26:09.290Z,70.25
2023-12-10T05:27:08.690Z,70.14
2023-12-10T05:28:08.689Z,70.25
2023-12-10T05:29:08.661Z,70.25
2023-12-10T05:30:08.650Z,70.25
2023-12-10T05:31:08.706Z,70.14
2023-12-10T05:32:08.713Z,70.14
2023-12-10T05:33:08.694Z,70.14
2023-12-10T05:34:08.677Z,70.14
2023-12-10T05:35:08.597Z,70.04
2023-12-10T05:36:08.581Z,70.04
2023-12-10T05:37:08.545Z,70.07
2023-12-10T05:38:08.618Z,70.07
2023-12-10T05:39:08.576Z,70.07
2023-12-10T05:40:09.134Z,69.96
2023-12-10T05:41:08.525Z,69.96
2023-12-10T05:42:08.522Z,69.96
2023-12-10T05:43:08.555Z,70.07
2023-12-10T05:44:08.525Z,70.07
2023-12-10T05:45:08.590Z,70.10
2023-12-10T05:46:08.745Z,70.20
2023-12-10T05:47:08.417Z,70.20
2023-12-10T05:48:08.475Z,70.20
2023-12-10T05:49:08.536Z,70.20
2023-12-10T05:50:08.649Z,70.20
2023-12-10T05:51:08.456Z,70.20
2023-12-10T05:52:08.376Z,70.20
2023-12-10T05:53:08.381Z,70.20
2023-12-10T05:54:08.371Z,70.20
2023-12-10T05:55:08.433Z,70.20
2023-12-10T05:56:08.340Z,70.20
2023-12-10T05:57:08.359Z,70.13
2023-12-10T05:58:08.317Z,70.13
2023-12-10T05:59:08.278Z,70.23
2023-12-10T06:00:08.275Z,70.13
2023-12-10T06:01:08.323Z,70.23
2023-12-10T06:02:08.310Z,70.23
2023-12-10T06:03:08.228Z,70.23
2023-12-10T06:04:08.303Z,70.23
2023-12-10T06:05:11.539Z,70.13
2023-12-10T06:06:08.372Z,70.13
2023-12-10T06:07:08.236Z,70.13
2023-12-10T06:08:08.168Z,70.13
2023-12-10T06:09:08.186Z,70.23
2023-12-10T06:10:08.238Z,70.13
2023-12-10T06:11:08.129Z,70.13
2023-12-10T06:12:08.168Z,70.10
2023-12-10T06:13:08.101Z,70.13
2023-12-10T06:14:08.086Z,70.20
2023-12-10T06:15:08.096Z,70.20
2023-12-10T06:16:08.043Z,70.10
2023-12-10T06:17:08.048Z,70.10
2023-12-10T06:18:08.096Z,70.10
2023-12-10T06:19:08.121Z,70.10
2023-12-10T06:20:08.022Z,70.10
2023-12-10T06:21:07.987Z,70.07
2023-12-10T06:22:07.977Z,70.07
2023-12-10T06:23:07.961Z,70.17
2023-12-10T06:24:07.972Z,70.17
2023-12-10T06:25:07.990Z,70.07
2023-12-10T06:26:07.934Z,70.14
2023-12-10T06:27:07.920Z,70.14
2023-12-10T06:28:07.918Z,70.10
2023-12-10T06:29:07.878Z,70.10
2023-12-10T06:30:07.894Z,70.00
2023-12-10T06:31:07.882Z,69.90
2023-12-10T06:32:07.847Z,69.79
2023-12-10T06:33:07.931Z,69.87
2023-12-10T06:34:07.961Z,69.76
2023-12-10T06:35:07.798Z,69.76
2023-12-10T06:36:07.824Z,69.79
2023-12-10T06:37:07.791Z,69.90
2023-12-10T06:38:07.795Z,69.79
2023-12-10T06:39:07.774Z,69.90
2023-12-10T06:40:07.749Z,69.90
2023-12-10T06:41:07.760Z,69.90
2023-12-10T06:42:07.757Z,69.90
2023-12-10T06:43:07.837Z,69.90
2023-12-10T06:44:07.698Z,70.04
2023-12-10T06:45:07.699Z,70.04
2023-12-10T06:46:07.691Z,70.04
2023-12-10T06:47:07.651Z,70.04
2023-12-10T06:48:07.816Z,70.14
2023-12-10T06:49:07.720Z,70.14
2023-12-10T06:50:07.621Z,70.14
2023-12-10T06:51:07.625Z,70.14
2023-12-10T06:52:07.618Z,70.14
2023-12-10T06:53:07.597Z,70.14
2023-12-10T06:54:07.624Z,70.14
2023-12-10T06:55:07.580Z,70.14
2023-12-10T06:56:07.554Z,70.14
2023-12-10T06:57:07.531Z,70.04
2023-12-10T06:58:07.582Z,70.04
2023-12-10T06:59:07.517Z,70.04
2023-12-10T07:00:07.690Z,70.04
2023-12-10T07:01:07.561Z,70.04
2023-12-10T07:02:07.529Z,70.04
2023-12-10T07:03:07.506Z,69.93
2023-12-10T07:04:07.641Z,69.93
2023-12-10T07:05:07.467Z,69.83
2023-12-10T07:06:07.452Z,69.83
2023-12-10T07:07:07.455Z,69.86
2023-12-10T07:08:07.466Z,69.86
2023-12-10T07:09:07.380Z,69.76
2023-12-10T07:10:07.462Z,69.76
2023-12-10T07:11:07.414Z,69.76
2023-12-10T07:12:07.422Z,69.76
2023-12-10T07:13:07.328Z,69.79
2023-12-10T07:14:07.312Z,69.79
2023-12-10T07:15:07.335Z,69.89
2023-12-10T07:16:07.381Z,69.89
2023-12-10T07:17:07.316Z,69.89
2023-12-10T07:18:07.482Z,69.79
2023-12-10T07:19:07.422Z,69.79
2023-12-10T07:20:07.353Z,69.79
2023-12-10T07:21:07.267Z,69.79
2023-12-10T07:22:07.256Z,69.68
2023-12-10T07:23:07.229Z,69.68
2023-12-10T07:24:07.355Z,69.68
2023-12-10T07:25:07.196Z,69.68
2023-12-10T07:26:07.177Z,69.68
2023-12-10T07:27:07.151Z,69.68
2023-12-10T07:28:07.135Z,69.79
2023-12-10T07:29:07.124Z,69.79
2023-12-10T07:30:07.223Z,69.79
2023-12-10T07:31:07.098Z,69.68
2023-12-10T07:32:07.088Z,69.68
2023-12-10T07:33:07.173Z,69.68
2023-12-10T07:34:07.194Z,69.55
2023-12-10T07:35:07.088Z,69.55
2023-12-10T07:36:07.026Z,69.45
2023-12-10T07:37:07.059Z,69.45
2023-12-10T07:38:07.007Z,69.34
2023-12-10T07:39:07.006Z,69.34
2023-12-10T07:40:06.983Z,69.34
2023-12-10T07:41:07.055Z,69.34
2023-12-10T07:42:06.975Z,69.34
2023-12-10T07:43:07.062Z,69.31
2023-12-10T07:44:06.953Z,69.21
2023-12-10T07:45:06.895Z,69.10
2023-12-10T07:46:06.977Z,69.00
2023-12-10T07:47:09.374Z,68.86
2023-12-10T07:48:06.949Z,68.76
2023-12-10T07:49:06.936Z,68.65
2023-12-10T07:50:06.884Z,68.52
2023-12-10T07:51:06.852Z,68.41
2023-12-10T07:52:06.825Z,68.41
2023-12-10T07:53:06.842Z,68.41
2023-12-10T07:54:06.805Z,68.52
2023-12-10T07:55:06.789Z,68.62
2023-12-10T07:56:06.808Z,68.62
2023-12-10T07:57:06.775Z,68.59
2023-12-10T07:58:06.888Z,68.49
2023-12-10T07:59:06.764Z,68.49
2023-12-10T08:00:06.943Z,68.38
2023-12-10T08:01:06.748Z,68.35
2023-12-10T08:02:06.743Z,68.25
2023-12-10T08:03:06.726Z,68.25
2023-12-10T08:04:06.737Z,68.25
2023-12-10T08:05:06.724Z,68.25
2023-12-10T08:06:06.679Z,68.25
2023-12-10T08:07:06.636Z,68.25
2023-12-10T08:08:06.632Z,68.32
2023-12-10T08:09:06.592Z,68.32
2023-12-10T08:10:06.655Z,68.43
2023-12-10T08:11:06.606Z,68.53
2023-12-10T08:12:06.560Z,68.53
2023-12-10T08:13:06.567Z,68.40
2023-12-10T08:14:06.561Z,68.29
2023-12-10T08:15:06.583Z,68.29
2023-12-10T08:16:06.556Z,68.29
2023-12-10T08:17:06.609Z,68.29
2023-12-10T08:18:06.646Z,68.29
2023-12-10T08:19:06.613Z,68.22
2023-12-10T08:20:06.511Z,68.22
2023-12-10T08:21:06.470Z,68.22
2023-12-10T08:22:06.489Z,68.22
2023-12-10T08:23:06.424Z,68.22
2023-12-10T08:24:06.418Z,68.22
2023-12-10T08:25:06.431Z,68.22
2023-12-10T08:26:06.377Z,68.22
2023-12-10T08:27:06.416Z,68.12
2023-12-10T08:28:06.467Z,68.12
2023-12-10T08:29:06.341Z,68.12
2023-12-10T08:30:06.330Z,68.22
2023-12-10T08:31:06.312Z,68.12
2023-12-10T08:32:06.301Z,68.19
2023-12-10T08:33:06.349Z,68.08
2023-12-10T08:34:06.344Z,67.98
2023-12-10T08:35:06.318Z,67.98
2023-12-10T08:36:06.256Z,68.01
2023-12-10T08:37:06.225Z,68.01
2023-12-10T08:38:06.234Z,68.12
2023-12-10T08:39:06.203Z,68.12
2023-12-10T08:40:06.235Z,68.15
2023-12-10T08:41:06.214Z,68.15
2023-12-10T08:42:06.174Z,68.25
2023-12-10T08:43:06.197Z,68.25
2023-12-10T08:44:06.171Z,68.25
2023-12-10T08:45:06.177Z,68.15
2023-12-10T08:46:06.213Z,68.15
2023-12-10T08:47:06.093Z,68.04
2023-12-10T08:48:06.134Z,67.94
2023-12-10T08:49:06.317Z,67.94
2023-12-10T08:50:06.085Z,67.94
2023-12-10T08:51:06.050Z,67.94
2023-12-10T08:52:06.061Z,68.04
2023-12-10T08:53:06.074Z,67.94
2023-12-10T08:54:06.046Z,67.94
2023-12-10T08:55:06.123Z,67.91
2023-12-10T08:56:06.007Z,67.91
2023-12-10T08:57:05.983Z,67.91
2023-12-10T08:58:05.959Z,67.77
2023-12-10T08:59:05.976Z,67.57
2023-12-10T09:00:06.047Z,67.36
2023-12-10T09:01:06.033Z,67.36
2023-12-10T09:02:05.922Z,67.22
2023-12-10T09:03:05.979Z,67.22
2023-12-10T09:04:06.067Z,67.12
2023-12-10T09:05:06.011Z,66.91
2023-12-10T09:06:05.871Z,66.67
2023-12-10T09:07:05.877Z,66.57
2023-12-10T09:08:05.834Z,66.57
2023-12-10T09:09:05.811Z,66.60
2023-12-10T09:10:11.537Z,66.60
2023-12-10T09:11:05.942Z,66.60
2023-12-10T09:12:05.819Z,66.47
2023-12-10T09:13:05.881Z,66.47
2023-12-10T09:14:05.804Z,66.57
2023-12-10T09:15:05.794Z,66.57
2023-12-10T09:16:05.754Z,66.54
2023-12-10T09:17:05.722Z,66.75
2023-12-10T09:18:05.847Z,66.61
2023-12-10T09:19:05.928Z,66.41
2023-12-10T09:20:05.677Z,66.17
2023-12-10T09:21:05.709Z,65.86
2023-12-10T09:22:05.655Z,65.66
2023-12-10T09:23:05.656Z,65.58
2023-12-10T09:24:05.653Z,65.69
2023-12-10T09:25:05.669Z,65.69
2023-12-10T09:26:05.601Z,65.92
2023-12-10T09:27:05.619Z,66.03
2023-12-10T09:28:07.774Z,66.26
2023-12-10T09:29:05.553Z,66.36
2023-12-10T09:30:05.584Z,66.60
2023-12-10T09:31:05.545Z,66.91
2023-12-10T09:32:05.585Z,67.15
2023-12-10T09:33:05.544Z,67.36
2023-12-10T09:34:05.557Z,67.46
2023-12-10T09:35:05.607Z,67.57
2023-12-10T09:36:05.469Z,67.70
2023-12-10T09:37:05.461Z,67.80
2023-12-10T09:38:05.453Z,67.67
2023-12-10T09:39:05.509Z,67.57
2023-12-10T09:40:05.505Z,67.46
2023-12-10T09:41:05.457Z,67.46
2023-12-10T09:42:05.394Z,67.46
2023-12-10T09:43:05.424Z,67.54
2023-12-10T09:44:05.392Z,67.64
2023-12-10T09:45:05.364Z,67.74
2023-12-10T09:46:05.393Z,67.71
2023-12-10T09:47:05.327Z,67.82
2023-12-10T09:48:05.466Z,67.68
2023-12-10T09:49:05.567Z,67.68
2023-12-10T09:50:05.289Z,67.54
2023-12-10T09:51:05.282Z,67.51
2023-12-10T09:52:05.342Z,67.41
2023-12-10T09:53:05.258Z,67.27
2023-12-10T09:54:05.226Z,67.17
2023-12-10T09:55:05.390Z,66.94
2023-12-10T09:56:05.211Z,66.80
2023-12-10T09:57:05.222Z,66.67
2023-12-10T09:58:05.244Z,66.46
2023-12-10T09:59:05.173Z,66.22
2023-12-10T10:00:05.141Z,66.09
2023-12-10T10:01:05.213Z,65.78
2023-12-10T10:02:05.131Z,65.78
2023-12-10T10:03:05.199Z,65.65
2023-12-10T10:04:05.380Z,65.55
2023-12-10T10:05:05.146Z,65.65
2023-12-10T10:06:05.081Z,65.65
2023-12-10T10:07:05.112Z,65.65
2023-12-10T10:08:05.042Z,65.65
2023-12-10T10:09:05.035Z,65.75
2023-12-10T10:10:05.078Z,65.75
2023-12-10T10:11:05.020Z,65.86
2023-12-10T10:12:04.990Z,65.86
2023-12-10T10:13:05.275Z,65.86
2023-12-10T10:14:04.956Z,65.86
2023-12-10T10:15:04.961Z,65.83
2023-12-10T10:16:04.994Z,65.83
2023-12-10T10:17:04.935Z,65.72
2023-12-10T10:18:05.073Z,65.83
2023-12-10T10:19:05.678Z,65.83
2023-12-10T10:20:04.934Z,65.92
2023-12-10T10:21:04.911Z,66.03
2023-12-10T10:22:04.874Z,66.03
2023-12-10T10:23:04.881Z,66.13
2023-12-10T10:24:04.830Z,66.24
2023-12-10T10:25:05.088Z,66.24
2023-12-10T10:26:04.826Z,66.24
2023-12-10T10:27:04.823Z,66.24
2023-12-10T10:28:04.926Z,66.34
2023-12-10T10:29:04.791Z,66.34
2023-12-10T10:30:04.991Z,66.34
2023-12-10T10:31:04.845Z,66.41
2023-12-10T10:32:04.739Z,66.41
2023-12-10T10:33:04.829Z,66.41
2023-12-10T10:34:04.749Z,66.51
2023-12-10T10:35:04.700Z,66.51
2023-12-10T10:36:04.687Z,66.48
2023-12-10T10:37:04.750Z,66.48
2023-12-10T10:38:04.665Z,66.38
2023-12-10T10:39:04.692Z,66.35
2023-12-10T10:40:04.813Z,66.35
2023-12-10T10:41:04.648Z,66.31
2023-12-10T10:42:04.602Z,66.31
2023-12-10T10:43:04.653Z,66.22
2023-12-10T10:44:04.620Z,66.19
2023-12-10T10:45:04.608Z,66.19
2023-12-10T10:46:05.606Z,66.16
2023-12-10T10:47:04.550Z,66.25
2023-12-10T10:48:04.838Z,66.16
2023-12-10T10:49:04.652Z,66.16
2023-12-10T10:50:20.963Z,66.02
2023-12-10T10:51:04.524Z,66.02
2023-12-10T10:52:04.494Z,66.02
2023-12-10T10:53:04.486Z,65.89
2023-12-10T10:54:04.460Z,65.78
2023-12-10T10:55:04.529Z,65.55
2023-12-10T10:56:04.495Z,65.45
2023-12-10T10:57:04.503Z,65.31
2023-12-10T10:58:04.530Z,65.18
2023-12-10T10:59:04.412Z,65.08
2023-12-10T11:00:06.058Z,64.84
2023-12-10T11:01:04.435Z,64.84
2023-12-10T11:02:04.364Z,64.71
2023-12-10T11:03:04.336Z,64.61
2023-12-10T11:04:04.526Z,64.58
2023-12-10T11:05:04.328Z,64.58
2023-12-10T11:06:06.657Z,64.58
2023-12-10T11:07:04.443Z,64.65
2023-12-10T11:08:04.300Z,64.55
2023-12-10T11:09:04.289Z,64.52
2023-12-10T11:10:04.263Z,64.52
2023-12-10T11:11:04.231Z,64.52
2023-12-10T11:12:04.241Z,64.49
2023-12-10T11:13:04.888Z,64.52
2023-12-10T11:14:04.214Z,64.59
2023-12-10T11:15:04.208Z,64.69
2023-12-10T11:16:04.212Z,64.79
2023-12-10T11:17:04.161Z,64.79
2023-12-10T11:18:04.400Z,64.90
2023-12-10T11:19:04.327Z,64.79
2023-12-10T11:20:04.123Z,64.90
2023-12-10T11:21:04.092Z,64.90
2023-12-10T11:22:04.177Z,64.90
2023-12-10T11:23:04.073Z,65.00
2023-12-10T11:24:04.052Z,64.76
2023-12-10T11:25:04.058Z,64.56
2023-12-10T11:26:04.017Z,64.32
2023-12-10T11:27:04.057Z,64.22
2023-12-10T11:28:04.060Z,64.22
2023-12-10T11:29:04.000Z,64.22
2023-12-10T11:30:03.961Z,64.20
2023-12-10T11:31:04.052Z,64.09
2023-12-10T11:32:03.972Z,63.76
2023-12-10T11:33:04.721Z,63.56
2023-12-10T11:34:03.941Z,63.53
2023-12-10T11:35:03.967Z,63.53
2023-12-10T11:36:32.814Z,63.39
2023-12-10T11:37:03.975Z,63.19
2023-12-10T11:38:03.965Z,62.85
2023-12-10T11:39:03.950Z,62.29
2023-12-10T11:40:04.070Z,62.39
2023-12-10T11:41:05.448Z,62.36
2023-12-10T11:42:06.772Z,61.93
2023-12-10T11:43:05.022Z,61.99
2023-12-10T11:44:04.031Z,61.79
2023-12-10T11:45:03.797Z,62.20
2023-12-10T11:46:03.763Z,62.51
2023-12-10T11:47:03.755Z,62.94
2023-12-10T11:48:03.859Z,63.24
2023-12-10T11:49:03.816Z,63.58
2023-12-10T11:50:03.711Z,63.78
2023-12-10T11:51:03.748Z,64.09
2023-12-10T11:52:05.412Z,64.18
2023-12-10T11:53:03.733Z,64.18
2023-12-10T11:54:03.652Z,63.98
2023-12-10T11:55:03.736Z,64.09
2023-12-10T11:56:03.654Z,64.15
2023-12-10T11:57:03.669Z,63.95
2023-12-10T11:58:03.658Z,64.09
2023-12-10T11:59:03.593Z,63.95
2023-12-10T12:00:03.601Z,64.26
2023-12-10T12:01:03.748Z,64.39
2023-12-10T12:02:03.580Z,64.79
2023-12-10T12:03:03.586Z,65.23
2023-12-10T12:04:04.037Z,65.33
2023-12-10T12:05:03.847Z,64.67
2023-12-10T12:06:03.944Z,64.43
2023-12-10T12:07:04.630Z,63.69
2023-12-10T12:08:04.054Z,62.05
2023-12-10T12:09:03.875Z,61.08
2023-12-10T12:10:03.820Z,61.19
2023-12-10T12:11:03.955Z,61.79
2023-12-10T12:12:04.002Z,62.96
2023-12-10T12:13:03.493Z,63.07
2023-12-10T12:14:03.413Z,63.13
2023-12-10T12:15:03.460Z,63.07
2023-12-10T12:16:03.381Z,64.01
2023-12-10T12:17:03.352Z,64.31
2023-12-10T12:18:03.700Z,64.41
2023-12-10T12:19:03.390Z,64.75
2023-12-10T12:20:03.345Z,65.48
2023-12-10T12:21:03.365Z,65.92
2023-12-10T12:22:03.402Z,66.13
2023-12-10T12:23:03.366Z,66.56
2023-12-10T12:24:03.313Z,66.66
2023-12-10T12:25:03.347Z,66.26
2023-12-10T12:26:03.239Z,66.49
2023-12-10T12:27:03.263Z,66.36
2023-12-10T12:28:03.339Z,66.36
2023-12-10T12:29:03.251Z,66.69
2023-12-10T12:30:03.266Z,67.24
2023-12-10T12:31:03.345Z,67.24
2023-12-10T12:32:19.236Z,67.57
2023-12-10T12:33:03.206Z,67.67
2023-12-10T12:34:03.299Z,67.97
2023-12-10T12:35:03.176Z,68.01
2023-12-10T12:36:03.129Z,68.11
2023-12-10T12:37:03.202Z,68.24
2023-12-10T12:38:03.063Z,68.14
2023-12-10T12:39:03.123Z,68.27
2023-12-10T12:40:04.825Z,68.58
2023-12-10T12:41:03.050Z,68.71
2023-12-10T12:42:03.028Z,68.68
2023-12-10T12:43:03.114Z,68.38
2023-12-10T12:44:03.070Z,68.38
2023-12-10T12:45:03.004Z,68.41
2023-12-10T12:46:03.053Z,68.41
2023-12-10T12:47:02.990Z,68.41
2023-12-10T12:48:02.986Z,68.31
2023-12-10T12:49:03.069Z,68.31
2023-12-10T12:50:03.050Z,68.31
2023-12-10T12:51:02.920Z,68.10
2023-12-10T12:52:02.937Z,67.87